Tulsa International Airport
KTUL : now visible

Airfield :











YOU CAN JOIN US ON...

 
LOGIN :

Register | Disclaimer

   EN    FR    IT 

 









Legend :    VFR   Marginal VFR   IFR   Intensive IFR   Very Intensive IFR
Visi :
Ceiling :
>= 8 km
>= 3000ft
5 to 8 km
1000 to 3000 ft
1500m to 5 km
500 to 1000 ft
800 to 1500m
200 to 500 ft
< 800m
< 200 ft
Symbols :   Thunderstorms  Fog  Heavy snow  Heavy precipitations  Wind > 20 kt






- Airport Elevation : 677 ft
- IATA code : TUL


KTUL - Tulsa International

CURRENT METAR :
  • 071553Z 17011KT 10SM BKN080 19/06 A3017 RMK AO2 SLP211 T01890061

EXPIRED METARs :
  • 071453Z 13008KT 10SM OVC095 16/07 A3019 RMK AO2 SLP218 60000 T01560072 50000
  • 071353Z 13007KT 10SM BKN090 BKN110 14/07 A3019 RMK AO2 RAB14E27 SLP220 P0000 T01390072

TAF KTUL
Valid from the 07 at 12:00 until the 08 at 12:00 UTC


071120Z 0712/0812 VRB03KT P6SM BKN100
FM071500 18006KT P6SM VCSH BKN090
FM071800 17011G18KT P6SM BKN120
FM080100 16010KT P6SM BKN100
KZKC FIR / North America



MET'MAP, your aeronautical weather chart ! - Copyright ORBIFLY December 2007 - Disclaimer

ORBIFLY MET'MAP TEAM :

Programming & Development : Alexandra Zaïnal
Concept & original design : Baudouin d'Aumeries
Assistance for programming : Marc-Olivier Méhu
Technical & hardware support : Manuel Goepfert

Contact : metmap@orbifly.com




SOURCES & CREDITS :

   NOAA       Earth
Advisory